Terminal Aerodrome Forecast
Issued by NWS Northern Indiana

Home | Current Version | Previous Version | Text Only | Print | Product List | Glossary On
Versions: 1 2 3 4 5 6 7 8 9 10 11 12 13 14
000
FTUS43 KIWX 201126
TAFFWA
TAF
KFWA 201126Z 2012/2112 VRB03KT P6SM BKN250
      TEMPO 2012/2014 2SM BR
     FM201700 14009KT P6SM SCT250
     FM210600 18009KT P6SM BKN070=

USA.gov is the U.S. government's official web portal to all federal, state and local government web resources and services.